createdAt,value
2018-09-20T00:02:29.695Z,4.80
2018-09-20T00:05:02.077Z,4.80
2018-09-20T00:07:34.812Z,4.10
2018-09-20T00:10:07.640Z,3.80
2018-09-20T00:12:40.792Z,3.80
2018-09-20T00:15:13.160Z,3.60
2018-09-20T00:17:45.340Z,3.40
2018-09-20T00:20:18.366Z,3.40
2018-09-20T00:22:50.890Z,5.70
2018-09-20T00:25:23.112Z,5.50
2018-09-20T00:27:55.297Z,4.30
2018-09-20T00:30:27.595Z,3.50
2018-09-20T00:32:59.896Z,3.40
2018-09-20T00:35:32.602Z,4.40
2018-09-20T00:38:05.093Z,3.50
2018-09-20T00:40:37.514Z,3.20
2018-09-20T00:43:10.829Z,3.30
2018-09-20T00:45:43.358Z,4.40
2018-09-20T00:48:16.003Z,3.60
2018-09-20T00:50:48.427Z,5.00
2018-09-20T00:53:20.934Z,4.10
2018-09-20T00:55:53.578Z,4.00
2018-09-20T00:58:25.994Z,4.40
2018-09-20T01:00:58.602Z,4.40
2018-09-20T01:03:31.185Z,5.20
2018-09-20T01:06:03.532Z,4.80
2018-09-20T01:08:36.101Z,4.40
2018-09-20T01:11:08.857Z,5.30
2018-09-20T01:13:41.605Z,5.30
2018-09-20T01:16:13.873Z,5.30
2018-09-20T01:18:46.573Z,5.70
2018-09-20T01:21:18.859Z,5.50
2018-09-20T01:23:51.175Z,5.90
2018-09-20T01:26:23.490Z,6.40
2018-09-20T01:28:55.945Z,6.70
2018-09-20T01:31:28.554Z,7.10
2018-09-20T01:34:00.850Z,7.50
2018-09-20T01:36:34.144Z,8.60
2018-09-20T01:39:10.663Z,8.50
2018-09-20T01:41:43.297Z,9.40
2018-09-20T01:44:15.721Z,9.60
2018-09-20T01:46:48.537Z,10.50
2018-09-20T01:49:21.043Z,10.70
2018-09-20T01:51:53.382Z,10.90
2018-09-20T01:54:25.691Z,13.00
2018-09-20T01:56:58.071Z,14.30
2018-09-20T01:59:30.299Z,15.50
2018-09-20T02:02:02.980Z,16.00
2018-09-20T02:04:35.720Z,16.30
2018-09-20T02:07:08.273Z,16.40
2018-09-20T02:09:40.754Z,16.70
2018-09-20T02:12:13.161Z,16.40
2018-09-20T02:14:45.600Z,16.70
2018-09-20T02:17:17.960Z,17.70
2018-09-20T02:19:50.517Z,18.10
2018-09-20T02:22:22.946Z,18.10
2018-09-20T02:24:55.338Z,17.60
2018-09-20T02:27:27.753Z,18.40
2018-09-20T02:30:00.101Z,18.30
2018-09-20T02:32:32.561Z,18.80
2018-09-20T02:35:04.962Z,19.40
2018-09-20T02:37:37.650Z,19.80
2018-09-20T02:40:10.101Z,20.40
2018-09-20T02:42:42.439Z,21.30
2018-09-20T02:45:15.053Z,22.00
2018-09-20T02:47:47.895Z,22.00
2018-09-20T02:50:20.525Z,22.60
2018-09-20T02:52:53.112Z,23.40
2018-09-20T02:55:25.484Z,23.80
2018-09-20T02:57:57.865Z,23.90
2018-09-20T03:00:30.180Z,24.50
2018-09-20T03:03:02.821Z,25.00
2018-09-20T03:05:35.160Z,25.10
2018-09-20T03:08:07.296Z,26.10
2018-09-20T03:10:39.434Z,26.20
2018-09-20T03:13:11.973Z,26.40
2018-09-20T03:15:44.546Z,26.40
2018-09-20T03:18:17.096Z,27.00
2018-09-20T03:20:49.280Z,26.90
2018-09-20T03:23:21.537Z,27.40
2018-09-20T03:25:54.199Z,28.20
2018-09-20T03:28:27.834Z,28.00
2018-09-20T03:31:00.558Z,28.20
2018-09-20T03:33:32.815Z,28.60
2018-09-20T03:36:05.323Z,28.70
2018-09-20T03:38:38.048Z,28.90
2018-09-20T03:41:10.476Z,29.20
2018-09-20T03:43:42.910Z,29.60
2018-09-20T03:46:15.090Z,29.80
2018-09-20T03:48:47.451Z,30.00
2018-09-20T03:51:19.669Z,30.60
2018-09-20T03:53:52.244Z,31.70
2018-09-20T03:56:24.664Z,31.90
2018-09-20T03:58:57.018Z,31.40
2018-09-20T04:01:29.322Z,32.50
2018-09-20T04:04:01.554Z,32.00
2018-09-20T04:06:34.090Z,32.30
2018-09-20T04:09:08.775Z,32.50
2018-09-20T04:11:41.747Z,32.70
2018-09-20T04:14:14.197Z,32.80
2018-09-20T04:16:46.667Z,34.10
2018-09-20T04:19:19.371Z,34.10
2018-09-20T04:21:51.944Z,34.00
2018-09-20T04:24:24.516Z,34.00
2018-09-20T04:26:57.116Z,34.00
2018-09-20T04:29:29.677Z,34.40
2018-09-20T04:32:02.094Z,34.90
2018-09-20T04:34:34.908Z,35.30
2018-09-20T04:37:07.085Z,36.20
2018-09-20T04:39:39.263Z,36.60
2018-09-20T04:42:12.151Z,36.60
2018-09-20T04:44:44.317Z,36.90
2018-09-20T04:47:16.404Z,37.10
2018-09-20T04:49:48.704Z,37.90
2018-09-20T04:52:20.810Z,38.10
2018-09-20T04:54:53.234Z,38.60
2018-09-20T04:57:25.262Z,38.50
2018-09-20T04:59:57.104Z,39.00
2018-09-20T05:02:29.284Z,39.20
2018-09-20T05:05:01.463Z,39.40
2018-09-20T05:07:33.750Z,39.70
2018-09-20T05:10:06.473Z,40.20
2018-09-20T05:12:40.066Z,40.50
2018-09-20T05:15:12.870Z,40.50
2018-09-20T05:17:45.200Z,40.80
2018-09-20T05:20:19.769Z,41.10
2018-09-20T05:22:51.963Z,41.30
2018-09-20T05:25:24.617Z,41.80
2018-09-20T05:27:56.749Z,41.60
2018-09-20T05:30:29.604Z,41.80
2018-09-20T05:33:01.966Z,42.00
2018-09-20T05:35:34.234Z,42.00
2018-09-20T05:38:06.750Z,43.00
2018-09-20T05:40:39.318Z,43.10
2018-09-20T05:43:11.689Z,43.30
2018-09-20T05:45:44.209Z,43.40
2018-09-20T05:48:16.860Z,43.20
2018-09-20T05:50:49.343Z,43.50
2018-09-20T05:53:21.771Z,43.90
2018-09-20T05:55:54.451Z,43.20
2018-09-20T05:58:26.731Z,43.50
2018-09-20T06:00:59.135Z,43.70
2018-09-20T06:03:31.886Z,43.90
2018-09-20T06:06:04.278Z,43.60
2018-09-20T06:08:36.465Z,44.10
2018-09-20T06:11:08.381Z,43.90
2018-09-20T06:13:40.825Z,44.00
2018-09-20T06:16:13.230Z,44.20
2018-09-20T06:18:45.614Z,43.70
2018-09-20T06:21:18.098Z,44.10
2018-09-20T06:23:50.530Z,44.10
2018-09-20T06:26:22.958Z,43.90
2018-09-20T06:28:55.434Z,43.40
2018-09-20T06:31:27.868Z,43.70
2018-09-20T06:34:00.009Z,43.40
2018-09-20T06:36:32.731Z,43.70
2018-09-20T06:39:05.917Z,44.10
2018-09-20T06:41:38.628Z,43.80
2018-09-20T06:44:11.181Z,43.90
2018-09-20T06:46:43.438Z,44.10
2018-09-20T06:49:15.800Z,44.40
2018-09-20T06:51:48.379Z,44.10
2018-09-20T06:54:20.731Z,44.00
2018-09-20T06:56:53.008Z,44.30
2018-09-20T06:59:25.172Z,44.30
2018-09-20T07:01:57.591Z,44.40
2018-09-20T07:04:29.914Z,44.60
2018-09-20T07:07:02.320Z,44.50
2018-09-20T07:09:34.578Z,44.30
2018-09-20T07:12:06.989Z,44.30
2018-09-20T07:14:39.536Z,44.60
2018-09-20T07:17:12.229Z,44.60
2018-09-20T07:19:44.623Z,45.00
2018-09-20T07:22:17.155Z,45.10
2018-09-20T07:24:49.249Z,44.90
2018-09-20T07:27:21.490Z,44.80
2018-09-20T07:29:53.823Z,45.00
2018-09-20T07:32:26.109Z,45.40
2018-09-20T07:34:58.457Z,45.30
2018-09-20T07:37:30.947Z,45.90
2018-09-20T07:40:03.823Z,45.90
2018-09-20T07:42:36.245Z,45.80
2018-09-20T07:45:08.631Z,46.10
2018-09-20T07:47:41.013Z,46.10
2018-09-20T07:50:13.313Z,46.60
2018-09-20T07:52:46.031Z,47.20
2018-09-20T07:55:18.392Z,47.00
2018-09-20T07:57:50.817Z,47.00
2018-09-20T08:00:23.225Z,48.20
2018-09-20T08:02:55.821Z,48.80
2018-09-20T08:05:28.307Z,49.10
2018-09-20T08:08:00.850Z,49.10
2018-09-20T08:10:33.573Z,49.20
2018-09-20T08:13:05.905Z,50.20
2018-09-20T08:15:38.174Z,50.30
2018-09-20T08:18:10.545Z,50.90
2018-09-20T08:20:42.881Z,51.60
2018-09-20T08:23:15.177Z,51.70
2018-09-20T08:25:47.629Z,52.60
2018-09-20T08:28:20.097Z,53.40
2018-09-20T08:30:52.458Z,53.20
2018-09-20T08:33:25.120Z,53.20
2018-09-20T08:35:57.664Z,54.60
2018-09-20T08:38:30.056Z,55.80
2018-09-20T08:41:02.766Z,55.60
2018-09-20T08:43:35.405Z,56.50
2018-09-20T08:46:08.143Z,57.80
2018-09-20T08:48:40.505Z,58.00
2018-09-20T08:51:12.649Z,58.90
2018-09-20T08:53:44.942Z,59.10
2018-09-20T08:56:17.354Z,59.60
2018-09-20T08:58:49.588Z,59.60
2018-09-20T09:01:21.845Z,59.90
2018-09-20T09:03:55.205Z,60.00
2018-09-20T09:06:27.605Z,60.90
2018-09-20T09:09:00.359Z,61.00
2018-09-20T09:11:32.771Z,61.40
2018-09-20T09:14:05.583Z,62.40
2018-09-20T09:16:37.914Z,62.00
2018-09-20T09:19:10.158Z,61.90
2018-09-20T09:21:42.698Z,62.20
2018-09-20T09:24:14.897Z,62.70
2018-09-20T09:26:47.244Z,63.40
2018-09-20T09:29:19.589Z,63.70
2018-09-20T09:31:51.962Z,63.70
2018-09-20T09:34:24.761Z,64.40
2018-09-20T09:36:57.309Z,64.20
2018-09-20T09:39:29.904Z,64.10
2018-09-20T09:42:02.203Z,64.20
2018-09-20T09:44:34.546Z,64.70
2018-09-20T09:47:06.728Z,65.50
2018-09-20T09:49:39.309Z,65.90
2018-09-20T09:52:11.731Z,66.00
2018-09-20T09:54:44.464Z,66.50
2018-09-20T09:57:16.898Z,66.70
2018-09-20T09:59:49.153Z,66.60
2018-09-20T10:02:21.680Z,66.80
2018-09-20T10:04:54.828Z,67.00
2018-09-20T10:07:27.182Z,66.80
2018-09-20T10:09:59.925Z,66.60
2018-09-20T10:12:32.437Z,66.80
2018-09-20T10:15:05.089Z,67.10
2018-09-20T10:17:37.294Z,67.70
2018-09-20T10:20:08.903Z,67.90
2018-09-20T10:22:41.454Z,67.70
2018-09-20T10:25:12.810Z,67.40
2018-09-20T10:27:45.212Z,67.50
2018-09-20T10:30:17.504Z,67.50
2018-09-20T10:32:49.718Z,67.40
2018-09-20T10:35:22.257Z,67.70
2018-09-20T10:37:54.677Z,68.20
2018-09-20T10:40:27.277Z,68.00
2018-09-20T10:42:59.889Z,68.40
2018-09-20T10:45:32.324Z,68.50
2018-09-20T10:48:04.618Z,68.90
2018-09-20T10:50:37.046Z,68.50
2018-09-20T10:53:09.368Z,69.20
2018-09-20T10:55:41.430Z,69.40
2018-09-20T10:58:13.815Z,69.50
2018-09-20T11:00:46.009Z,69.30
2018-09-20T11:03:18.369Z,69.10
2018-09-20T11:05:50.695Z,69.10
2018-09-20T11:08:22.963Z,69.20
2018-09-20T11:10:55.866Z,69.20
2018-09-20T11:13:28.172Z,69.00
2018-09-20T11:16:00.570Z,68.90
2018-09-20T11:18:33.185Z,69.40
2018-09-20T11:21:05.583Z,69.40
2018-09-20T11:23:37.913Z,69.20
2018-09-20T11:26:10.315Z,69.60
2018-09-20T11:28:42.662Z,69.60
2018-09-20T11:31:15.275Z,70.10
2018-09-20T11:33:47.446Z,69.80
2018-09-20T11:36:20.117Z,69.80
2018-09-20T11:38:52.572Z,70.30
2018-09-20T11:41:24.983Z,70.40
2018-09-20T11:43:57.752Z,70.70
2018-09-20T11:46:30.006Z,70.90
2018-09-20T11:49:02.280Z,71.20
2018-09-20T11:51:34.454Z,71.90
2018-09-20T11:54:07.030Z,71.90
2018-09-20T11:56:39.298Z,72.90
2018-09-20T11:59:11.489Z,73.30
2018-09-20T12:01:44.122Z,73.40
2018-09-20T12:04:16.411Z,73.70
2018-09-20T12:06:48.876Z,73.50
2018-09-20T12:09:21.194Z,73.60
2018-09-20T12:11:53.688Z,73.80
2018-09-20T12:14:26.047Z,73.60
2018-09-20T12:16:58.391Z,73.60
2018-09-20T12:19:30.746Z,73.70
2018-09-20T12:22:02.987Z,74.80
2018-09-20T12:24:35.577Z,75.50
2018-09-20T12:27:08.316Z,76.00
2018-09-20T12:29:40.788Z,76.30
2018-09-20T12:32:13.391Z,76.30
2018-09-20T12:34:45.836Z,76.60
2018-09-20T12:37:18.162Z,76.60
2018-09-20T12:39:50.741Z,76.80
2018-09-20T12:42:22.917Z,77.00
2018-09-20T12:44:55.264Z,76.90
2018-09-20T12:47:27.692Z,77.10
2018-09-20T12:50:00.222Z,77.60
2018-09-20T12:52:33.418Z,78.00
2018-09-20T12:55:05.636Z,78.40
2018-09-20T12:57:37.752Z,78.90
2018-09-20T13:00:11.109Z,78.80
2018-09-20T13:02:43.535Z,78.70
2018-09-20T13:05:15.911Z,78.90
2018-09-20T13:07:48.334Z,79.20
2018-09-20T13:10:20.726Z,79.40
2018-09-20T13:12:53.139Z,79.30
2018-09-20T13:15:25.202Z,79.20
2018-09-20T13:17:57.451Z,79.40
2018-09-20T13:20:29.815Z,79.50
2018-09-20T13:23:02.179Z,79.30
2018-09-20T13:25:34.658Z,79.10
2018-09-20T13:28:07.341Z,79.10
2018-09-20T13:30:39.736Z,79.30
2018-09-20T13:33:12.180Z,79.00
2018-09-20T13:35:44.468Z,79.10
2018-09-20T13:38:17.022Z,79.40
2018-09-20T13:40:49.384Z,79.60
2018-09-20T13:43:21.838Z,80.00
2018-09-20T13:45:54.027Z,80.00
2018-09-20T13:48:26.778Z,80.50
2018-09-20T13:50:58.980Z,80.70
2018-09-20T13:53:31.400Z,80.40
2018-09-20T13:56:04.013Z,80.30
2018-09-20T13:58:36.392Z,79.70
2018-09-20T14:01:09.185Z,79.70
2018-09-20T14:03:41.463Z,79.50
2018-09-20T14:06:14.142Z,79.60
2018-09-20T14:08:47.378Z,79.60
2018-09-20T14:11:19.931Z,79.40
2018-09-20T14:13:52.391Z,79.80
2018-09-20T14:16:25.056Z,80.30
2018-09-20T14:18:57.726Z,80.50
2018-09-20T14:21:30.115Z,81.20
2018-09-20T14:24:02.645Z,81.60
2018-09-20T14:26:35.065Z,82.20
2018-09-20T14:29:07.671Z,82.50
2018-09-20T14:31:40.145Z,82.80
2018-09-20T14:34:12.355Z,83.00
2018-09-20T14:36:45.327Z,82.90
2018-09-20T14:39:17.524Z,83.40
2018-09-20T14:41:49.964Z,83.10
2018-09-20T14:44:22.182Z,84.70
2018-09-20T14:46:54.780Z,85.00
2018-09-20T14:49:26.937Z,85.00
2018-09-20T14:51:59.625Z,85.40
2018-09-20T14:54:32.191Z,84.90
2018-09-20T14:57:04.619Z,85.00
2018-09-20T14:59:36.983Z,85.30
2018-09-20T15:02:09.366Z,85.30
2018-09-20T15:04:41.646Z,85.30
2018-09-20T15:07:13.917Z,85.70
2018-09-20T15:09:46.157Z,85.90
2018-09-20T15:12:18.198Z,86.00
2018-09-20T15:14:51.348Z,85.90
2018-09-20T15:17:23.478Z,85.80
2018-09-20T15:19:55.929Z,86.20
2018-09-20T15:22:28.517Z,86.40
2018-09-20T15:25:01.055Z,86.60
2018-09-20T15:27:33.279Z,86.60
2018-09-20T15:30:06.023Z,85.40
2018-09-20T15:32:38.580Z,84.70
2018-09-20T15:35:11.225Z,82.80
2018-09-20T15:37:43.562Z,82.60
2018-09-20T15:40:15.880Z,81.40
2018-09-20T15:42:48.438Z,75.00
2018-09-20T15:45:21.150Z,71.90
2018-09-20T15:47:53.557Z,71.50
2018-09-20T15:50:25.768Z,68.20
2018-09-20T15:52:57.776Z,67.80
2018-09-20T15:55:30.303Z,67.10
2018-09-20T15:58:02.337Z,65.80
2018-09-20T16:00:34.956Z,64.70
2018-09-20T16:03:08.267Z,58.00
2018-09-20T16:05:40.731Z,56.50
2018-09-20T16:08:13.091Z,52.30
2018-09-20T16:10:45.339Z,50.80
2018-09-20T16:13:17.777Z,46.30
2018-09-20T16:15:49.938Z,46.80
2018-09-20T16:18:22.131Z,41.60
2018-09-20T16:20:54.756Z,39.00
2018-09-20T16:23:27.487Z,37.30
2018-09-20T16:26:00.090Z,36.30
2018-09-20T16:30:58.987Z,34.10
2018-09-20T16:34:42.782Z,33.90
2018-09-20T16:37:35.527Z,34.50
2018-09-20T16:40:09.038Z,34.80
2018-09-20T16:42:45.520Z,34.00
2018-09-20T16:45:18.078Z,33.50
2018-09-20T16:47:50.317Z,33.50
2018-09-20T16:50:22.623Z,29.90
2018-09-20T16:52:55.235Z,30.00
2018-09-20T16:55:27.496Z,28.90
2018-09-20T16:57:59.834Z,30.50
2018-09-20T17:00:32.242Z,29.60
2018-09-20T17:03:04.493Z,26.40
2018-09-20T17:05:36.681Z,27.80
2018-09-20T17:08:09.059Z,28.70
2018-09-20T17:10:41.527Z,28.00
2018-09-20T17:13:13.754Z,27.00
2018-09-20T17:15:46.209Z,25.60
2018-09-20T17:18:18.912Z,27.00
2018-09-20T17:20:51.282Z,28.00
2018-09-20T17:23:23.681Z,27.20
2018-09-20T17:25:55.859Z,27.60
2018-09-20T17:28:28.619Z,27.50
2018-09-20T17:31:01.345Z,28.20
2018-09-20T17:33:33.619Z,28.00
2018-09-20T17:36:06.064Z,28.40
2018-09-20T17:38:40.284Z,28.40
2018-09-20T17:41:18.266Z,28.30
2018-09-20T17:43:55.683Z,28.40
2018-09-20T17:46:27.942Z,28.80
2018-09-20T17:49:00.277Z,28.60
2018-09-20T17:51:33.647Z,28.70
2018-09-20T17:54:06.610Z,29.40
2018-09-20T17:56:39.755Z,28.70
2018-09-20T17:59:11.866Z,27.50
2018-09-20T18:01:44.442Z,25.80
2018-09-20T18:04:17.156Z,25.10
2018-09-20T18:06:49.793Z,24.20
2018-09-20T18:09:22.314Z,23.80
2018-09-20T18:11:54.561Z,23.10
2018-09-20T18:14:26.892Z,23.90
2018-09-20T18:16:59.264Z,23.00
2018-09-20T18:19:31.808Z,23.70
2018-09-20T18:22:04.715Z,24.40
2018-09-20T18:24:37.237Z,24.70
2018-09-20T18:27:09.585Z,24.80
2018-09-20T18:29:42.564Z,23.30
2018-09-20T18:32:14.907Z,23.60
2018-09-20T18:34:47.267Z,23.20
2018-09-20T18:37:19.644Z,23.40
2018-09-20T18:39:51.827Z,23.20
2018-09-20T18:42:24.241Z,21.90
2018-09-20T18:44:56.581Z,22.50
2018-09-20T18:47:29.128Z,21.10
2018-09-20T18:50:01.994Z,22.40
2018-09-20T18:52:34.592Z,22.20
2018-09-20T18:55:07.097Z,20.20
2018-09-20T18:57:39.749Z,20.50
2018-09-20T19:00:12.165Z,21.60
2018-09-20T19:02:44.698Z,19.70
2018-09-20T19:05:17.060Z,19.90
2018-09-20T19:07:49.516Z,18.20
2018-09-20T19:10:21.706Z,19.80
2018-09-20T19:12:54.078Z,20.10
2018-09-20T19:15:26.436Z,18.80
2018-09-20T19:17:58.805Z,18.20
2018-09-20T19:20:31.439Z,17.20
2018-09-20T19:23:03.769Z,18.40
2018-09-20T19:25:36.228Z,18.20
2018-09-20T19:28:08.768Z,17.30
2018-09-20T19:30:41.590Z,17.40
2018-09-20T19:33:13.980Z,16.80
2018-09-20T19:35:46.438Z,17.00
2018-09-20T19:38:18.869Z,17.00
2018-09-20T19:40:51.054Z,14.60
2018-09-20T19:43:23.563Z,14.80
2018-09-20T19:45:56.217Z,15.50
2018-09-20T19:48:28.614Z,14.80
2018-09-20T19:51:00.851Z,14.20
2018-09-20T19:53:33.346Z,15.10
2018-09-20T19:56:06.582Z,17.00
2018-09-20T19:58:38.910Z,15.50
2018-09-20T20:01:11.248Z,13.20
2018-09-20T20:03:43.851Z,15.00
2018-09-20T20:06:16.150Z,14.60
2018-09-20T20:08:48.674Z,14.40
2018-09-20T20:11:21.285Z,14.20
2018-09-20T20:13:54.325Z,12.00
2018-09-20T20:16:26.709Z,11.80
2018-09-20T20:18:59.147Z,13.60
2018-09-20T20:21:31.205Z,12.90
2018-09-20T20:24:03.735Z,13.50
2018-09-20T20:26:36.115Z,12.30
2018-09-20T20:29:08.344Z,11.40
2018-09-20T20:31:40.863Z,10.80
2018-09-20T20:34:13.253Z,12.80
2018-09-20T20:36:45.603Z,12.40
2018-09-20T20:39:17.757Z,11.80
2018-09-20T20:41:49.825Z,12.70
2018-09-20T20:44:22.663Z,11.00
2018-09-20T20:46:56.041Z,12.90
2018-09-20T20:49:28.536Z,11.70
2018-09-20T20:52:01.367Z,12.20
2018-09-20T20:54:33.843Z,12.60
2018-09-20T20:57:06.435Z,11.90
2018-09-20T20:59:39.152Z,11.70
2018-09-20T21:02:11.603Z,11.50
2018-09-20T21:04:44.105Z,10.70
2018-09-20T21:07:16.499Z,11.40
2018-09-20T21:09:49.109Z,10.80
2018-09-20T21:12:21.537Z,10.40
2018-09-20T21:14:53.874Z,10.70
2018-09-20T21:17:26.631Z,10.60
2018-09-20T21:19:59.005Z,10.40
2018-09-20T21:22:31.617Z,10.70
2018-09-20T21:25:04.144Z,10.40
2018-09-20T21:27:36.852Z,11.10
2018-09-20T21:30:09.117Z,11.20
2018-09-20T21:32:41.507Z,10.90
2018-09-20T21:35:13.915Z,9.70
2018-09-20T21:37:46.032Z,10.50
2018-09-20T21:40:18.554Z,9.90
2018-09-20T21:42:54.168Z,10.50
2018-09-20T21:45:26.882Z,9.80
2018-09-20T21:47:59.514Z,9.60
2018-09-20T21:50:32.053Z,9.50
2018-09-20T21:53:04.443Z,10.00
2018-09-20T21:55:36.655Z,10.50
2018-09-20T21:58:09.366Z,10.80
2018-09-20T22:00:41.707Z,10.00
2018-09-20T22:03:14.254Z,11.30
2018-09-20T22:05:46.599Z,10.50
2018-09-20T22:08:18.731Z,9.90
2018-09-20T22:10:51.351Z,10.00
2018-09-20T22:13:23.923Z,9.30
2018-09-20T22:15:57.417Z,8.40
2018-09-20T22:18:30.012Z,9.30
2018-09-20T22:21:02.758Z,7.90
2018-09-20T22:23:34.859Z,7.70
2018-09-20T22:26:07.100Z,7.50
2018-09-20T22:28:39.468Z,7.60
2018-09-20T22:31:11.876Z,7.60
2018-09-20T22:33:44.182Z,7.30
2018-09-20T22:36:16.374Z,8.10
2018-09-20T22:38:49.288Z,8.40
2018-09-20T22:41:21.297Z,7.80
2018-09-20T22:43:53.535Z,7.10
2018-09-20T22:46:25.701Z,8.10
2018-09-20T22:48:58.348Z,6.70
2018-09-20T22:51:30.633Z,6.90
2018-09-20T22:54:03.004Z,6.00
2018-09-20T22:56:35.546Z,6.40
2018-09-20T22:59:08.172Z,6.80
2018-09-20T23:01:40.868Z,6.90
2018-09-20T23:04:14.990Z,6.50
2018-09-20T23:06:47.302Z,6.10
2018-09-20T23:09:19.786Z,6.60
2018-09-20T23:11:52.059Z,5.90
2018-09-20T23:14:24.251Z,6.60
2018-09-20T23:16:56.711Z,6.20
2018-09-20T23:19:29.081Z,5.90
2018-09-20T23:22:01.380Z,5.40
2018-09-20T23:24:33.642Z,5.70
2018-09-20T23:27:06.046Z,5.60
2018-09-20T23:29:38.564Z,5.10
2018-09-20T23:32:10.918Z,5.20
2018-09-20T23:34:43.727Z,4.90
2018-09-20T23:37:16.269Z,4.90
2018-09-20T23:39:48.679Z,5.00
2018-09-20T23:42:21.276Z,4.70
2018-09-20T23:44:53.419Z,5.50
2018-09-20T23:47:26.226Z,5.20
2018-09-20T23:49:58.388Z,5.10
2018-09-20T23:52:30.922Z,5.00
2018-09-20T23:55:03.938Z,4.60
2018-09-20T23:57:36.285Z,4.40
